Pagina principală
METAR-TAF:

METAR-TAF

Aeroporturi :

San Joaquín, Bolivia

Latitudine: 13-04S, longitudine: 064-49W, elevație: 140 m

Observații meteo curente

Raportul a fost făcut în urmă cu 55 de minute, la 12:00 UTC
Vânt calm
Temperatură 14°C
Umiditate 94%
Presiune 1016 hPa
Vizibilitate de 10 km sau mai mult

METAR: SLJO 291200Z 00000KT 9999 NSC 14/13 Q1016

Ora: 08:55 (12:55 UTC)


TAF: lipsă

Observații și prognoze meteo pentru peste 4.000 de aeroporturi (rapoarte METAR și TAF).

Stațiile disponibile sunt reprezentate pe hartă prin puncte galbene și roșii.

Țineți indicatorul mouse-ului pe punctul dorit pentru a vedea denumirea stației.

Apoi, faceți clic pentru a vedea observațiile și prognozele meteorologice.

Pentru a schimba harta: Pentru mărire, faceți clic pe butoanele verzi cu cruce neagră; pentru micșorare, pe butonul verde cu o liniuță; pentru hărți învecinate, pe săgețile verzi.


METAR-TAF: